Time;durP1;ratioP1;P1;durP2;ratioP2;P2;SDS_P1;SDS_P2;PMS_P1;PMS_P2;Temp;Humidity;BMP_temperature;BMP_pressure;BME280_temperature;BME280_humidity;BME280_pressure;Samples;Min_cycle;Max_cycle;Signal;HPM_P1;HPM_P2
2023/07/25 00:02:23;;;;;;;3.10;0.95;;;16.60;99.90;;;;;;4405959;32;20125;-73
2023/07/25 00:04:48;;;;;;;0.75;0.75;;;16.60;99.90;;;;;;4385592;32;20070;-74
2023/07/25 00:07:14;;;;;;;0.30;0.30;;;16.60;99.90;;;;;;4391002;32;20063;-72
2023/07/25 00:09:39;;;;;;;0.30;0.30;;;16.60;99.90;;;;;;4381989;32;20448;-73
2023/07/25 00:12:05;;;;;;;0.77;0.50;;;16.70;99.90;;;;;;4394498;32;20478;-74
2023/07/25 00:14:32;;;;;;;0.30;0.30;;;16.70;99.90;;;;;;4395115;32;20116;-73
2023/07/25 00:16:57;;;;;;;0.43;0.43;;;16.70;99.90;;;;;;4401082;32;20078;-73
2023/07/25 00:19:23;;;;;;;0.40;0.40;;;16.70;99.90;;;;;;4397138;32;20511;-73
2023/07/25 00:21:48;;;;;;;0.82;0.50;;;16.60;99.90;;;;;;4397064;32;20066;-73
2023/07/25 00:24:14;;;;;;;0.30;0.30;;;16.60;99.90;;;;;;4392394;32;20082;-73
2023/07/25 00:26:39;;;;;;;0.35;0.35;;;16.60;99.90;;;;;;4391626;32;20139;-73
2023/07/25 00:29:05;;;;;;;0.43;0.43;;;16.70;99.90;;;;;;4398122;32;20074;-74
2023/07/25 00:31:31;;;;;;;0.45;0.45;;;16.70;99.90;;;;;;4396725;32;20073;-75
2023/07/25 00:33:56;;;;;;;0.30;0.30;;;16.60;99.90;;;;;;4399320;32;20089;-74
2023/07/25 00:36:22;;;;;;;0.50;0.50;;;16.60;99.90;;;;;;4389245;32;20534;-74
2023/07/25 00:38:47;;;;;;;0.25;0.25;;;16.70;99.90;;;;;;4388515;32;20324;-74
2023/07/25 00:41:13;;;;;;;0.40;0.40;;;16.60;99.90;;;;;;4390118;32;20132;-74
2023/07/25 00:43:38;;;;;;;0.35;0.35;;;16.60;99.90;;;;;;4388651;32;20522;-74
2023/07/25 00:46:04;;;;;;;0.40;0.40;;;16.50;99.90;;;;;;4382746;32;20078;-74
2023/07/25 00:48:31;;;;;;;0.32;0.32;;;16.50;99.90;;;;;;4385566;32;20071;-74
2023/07/25 00:50:56;;;;;;;2.20;0.50;;;16.50;99.90;;;;;;4388201;32;20062;-74
2023/07/25 00:53:23;;;;;;;0.40;0.40;;;16.60;99.90;;;;;;4394936;32;20149;-74
2023/07/25 00:55:50;;;;;;;0.88;0.52;;;16.60;99.90;;;;;;4392743;32;20507;-73
2023/07/25 00:58:16;;;;;;;0.30;0.30;;;16.60;99.90;;;;;;4393918;32;20422;-74
2023/07/25 01:00:43;;;;;;;1.15;0.73;;;16.50;99.90;;;;;;4391060;32;20079;-74
2023/07/25 01:03:10;;;;;;;0.43;0.30;;;16.50;99.90;;;;;;4406901;32;20520;-75
2023/07/25 01:05:40;;;;;;;0.30;0.30;;;16.50;99.90;;;;;;4413115;32;20493;-74
2023/07/25 01:08:06;;;;;;;0.60;0.60;;;16.50;99.90;;;;;;4410172;32;20130;-74
2023/07/25 01:10:34;;;;;;;1.60;1.10;;;16.50;99.90;;;;;;4414929;32;20070;-74
2023/07/25 01:13:00;;;;;;;0.40;0.40;;;16.50;99.90;;;;;;4414884;32;20130;-74
2023/07/25 01:15:26;;;;;;;2.00;0.68;;;16.50;99.90;;;;;;4400040;32;20510;-74
2023/07/25 01:17:52;;;;;;;0.30;0.30;;;16.50;99.90;;;;;;4407764;32;20173;-74
2023/07/25 01:20:18;;;;;;;0.30;0.30;;;16.40;99.90;;;;;;4407485;32;20066;-74
2023/07/25 01:22:45;;;;;;;0.73;0.70;;;16.40;99.90;;;;;;4408876;32;20457;-75
2023/07/25 01:25:11;;;;;;;5.87;0.52;;;16.30;99.90;;;;;;4414392;32;20422;-74
2023/07/25 01:27:36;;;;;;;0.30;0.30;;;16.40;99.90;;;;;;4414927;32;20062;-75
2023/07/25 01:30:02;;;;;;;0.57;0.57;;;16.40;99.90;;;;;;4414930;32;20560;-74
2023/07/25 01:32:27;;;;;;;0.30;0.30;;;16.40;99.90;;;;;;4412666;32;20073;-75
2023/07/25 01:34:53;;;;;;;0.40;0.40;;;16.50;99.90;;;;;;4412518;32;20431;-75
2023/07/25 01:37:19;;;;;;;0.57;0.57;;;16.40;99.90;;;;;;4414333;32;20639;-74
2023/07/25 01:39:44;;;;;;;0.37;0.37;;;16.30;99.90;;;;;;4414616;32;20070;-74
2023/07/25 01:42:10;;;;;;;0.40;0.40;;;16.30;99.90;;;;;;4414492;32;20087;-74
2023/07/25 01:44:35;;;;;;;0.37;0.37;;;16.30;99.90;;;;;;4409613;32;20066;-74
2023/07/25 01:47:01;;;;;;;0.50;0.50;;;16.30;99.90;;;;;;4414019;32;20469;-74
2023/07/25 01:49:26;;;;;;;21.98;0.50;;;16.20;99.90;;;;;;4413118;32;20079;-74
2023/07/25 01:51:52;;;;;;;0.30;0.30;;;16.20;99.90;;;;;;4415246;32;20073;-75
2023/07/25 01:54:17;;;;;;;0.50;0.50;;;16.20;99.90;;;;;;4414282;32;20061;-74
2023/07/25 01:56:43;;;;;;;0.55;0.55;;;16.30;99.90;;;;;;4416590;32;20523;-75
2023/07/25 01:59:10;;;;;;;0.50;0.50;;;16.30;99.90;;;;;;4415356;32;20065;-74
2023/07/25 02:01:36;;;;;;;0.45;0.45;;;16.30;99.90;;;;;;4414309;32;20070;-74
2023/07/25 02:04:08;;;;;;;0.30;0.30;;;16.40;99.90;;;;;;4419614;32;20121;-74
2023/07/25 02:06:34;;;;;;;0.57;0.57;;;16.30;99.90;;;;;;4408492;32;20083;-74
2023/07/25 02:08:59;;;;;;;0.43;0.43;;;16.30;99.90;;;;;;4414260;32;20435;-74
2023/07/25 02:11:24;;;;;;;0.62;0.62;;;16.30;99.90;;;;;;4405548;32;20078;-73
2023/07/25 02:13:50;;;;;;;0.43;0.43;;;16.40;99.90;;;;;;4411451;32;20069;-73
2023/07/25 02:16:17;;;;;;;0.47;0.47;;;16.40;99.90;;;;;;4412440;32;20078;-74
2023/07/25 02:18:43;;;;;;;0.60;0.60;;;16.40;99.90;;;;;;4409842;32;20116;-74
2023/07/25 02:21:08;;;;;;;0.30;0.30;;;16.40;99.90;;;;;;4413905;32;20066;-72
2023/07/25 02:23:34;;;;;;;0.50;0.50;;;16.40;99.90;;;;;;4414335;32;20062;-72
2023/07/25 02:25:59;;;;;;;0.30;0.30;;;16.30;99.90;;;;;;4416683;32;20073;-73
2023/07/25 02:28:25;;;;;;;0.55;0.55;;;16.30;99.90;;;;;;4413660;32;20073;-73
2023/07/25 02:30:50;;;;;;;1.75;1.05;;;16.30;99.90;;;;;;4412477;32;20120;-73
2023/07/25 02:33:16;;;;;;;0.43;0.43;;;16.30;99.90;;;;;;4413141;32;20073;-73
2023/07/25 02:35:41;;;;;;;0.40;0.40;;;16.30;99.90;;;;;;4414051;32;20416;-73
2023/07/25 02:38:08;;;;;;;1.12;0.98;;;16.30;99.90;;;;;;4414837;32;20497;-73
2023/07/25 02:40:33;;;;;;;0.60;0.60;;;16.30;99.90;;;;;;4402599;32;20101;-73
2023/07/25 02:42:59;;;;;;;0.40;0.35;;;16.20;99.90;;;;;;4413573;32;20070;-73
2023/07/25 02:45:24;;;;;;;0.30;0.30;;;16.20;99.90;;;;;;4412361;32;20090;-75
2023/07/25 02:47:50;;;;;;;0.57;0.40;;;16.20;99.90;;;;;;4412453;32;20126;-73
2023/07/25 02:50:15;;;;;;;0.50;0.50;;;16.20;99.90;;;;;;4413773;32;20505;-73
2023/07/25 02:52:41;;;;;;;0.62;0.57;;;16.20;99.90;;;;;;4413079;32;20060;-72
2023/07/25 02:55:07;;;;;;;0.40;0.40;;;16.20;99.90;;;;;;4410142;32;20082;-74
2023/07/25 02:57:33;;;;;;;0.30;0.30;;;16.20;99.90;;;;;;4403189;32;20074;-74
2023/07/25 02:59:59;;;;;;;0.30;0.30;;;16.30;99.90;;;;;;4412604;32;20066;-73
2023/07/25 03:02:24;;;;;;;1.08;0.62;;;16.30;99.90;;;;;;4413731;32;20501;-74
2023/07/25 03:04:50;;;;;;;1.45;0.85;;;16.20;99.90;;;;;;4413599;32;20569;-73
2023/07/25 03:07:15;;;;;;;0.30;0.30;;;16.20;99.90;;;;;;4422057;32;20081;-75
2023/07/25 03:09:41;;;;;;;1.80;0.75;;;16.20;99.90;;;;;;4412292;32;20082;-73
2023/07/25 03:12:06;;;;;;;0.40;0.40;;;16.20;99.90;;;;;;4413808;32;20475;-74
2023/07/25 03:14:32;;;;;;;0.40;0.40;;;16.20;99.90;;;;;;4412498;32;20070;-74
2023/07/25 03:16:57;;;;;;;0.50;0.50;;;16.10;99.90;;;;;;4413388;32;20079;-75
2023/07/25 03:19:23;;;;;;;0.30;0.30;;;16.10;99.90;;;;;;4413404;32;20513;-75
2023/07/25 03:21:49;;;;;;;5.00;0.77;;;16.20;99.90;;;;;;4413746;32;20082;-74
2023/07/25 03:24:15;;;;;;;0.30;0.30;;;16.10;99.90;;;;;;4413163;32;20070;-74
2023/07/25 03:26:40;;;;;;;0.20;0.20;;;16.10;99.90;;;;;;4412309;32;20082;-75
2023/07/25 03:29:06;;;;;;;0.30;0.30;;;16.10;99.90;;;;;;4413429;32;20066;-74
2023/07/25 03:31:31;;;;;;;0.50;0.50;;;16.10;99.90;;;;;;4412062;32;20088;-74
2023/07/25 03:33:57;;;;;;;0.85;0.60;;;16.00;99.90;;;;;;4406937;32;20070;-72
2023/07/25 03:36:24;;;;;;;0.25;0.25;;;16.00;99.90;;;;;;4397990;32;20074;-73
2023/07/25 03:38:49;;;;;;;3.72;0.80;;;16.00;99.90;;;;;;4405490;32;20061;-72
2023/07/25 03:41:15;;;;;;;0.77;0.77;;;16.00;99.90;;;;;;4413008;32;20078;-73
2023/07/25 03:43:40;;;;;;;0.43;0.43;;;16.00;99.90;;;;;;4412998;32;20115;-73
2023/07/25 03:46:06;;;;;;;0.40;0.40;;;15.90;99.90;;;;;;4412852;32;20090;-73
2023/07/25 03:48:32;;;;;;;0.45;0.45;;;15.90;99.90;;;;;;4412479;32;20116;-75
2023/07/25 03:50:57;;;;;;;0.40;0.40;;;15.90;99.90;;;;;;4413585;32;20375;-74
2023/07/25 03:53:23;;;;;;;3.28;0.70;;;15.90;99.90;;;;;;4412532;32;20086;-74
2023/07/25 03:55:48;;;;;;;0.37;0.37;;;15.90;99.90;;;;;;4413300;32;20752;-74
2023/07/25 03:58:14;;;;;;;0.40;0.40;;;15.90;99.90;;;;;;4412855;32;20069;-75
2023/07/25 04:00:41;;;;;;;0.57;0.57;;;15.90;99.90;;;;;;4405579;32;20062;-73
2023/07/25 04:03:06;;;;;;;2.28;0.75;;;15.90;99.90;;;;;;4418869;32;20133;-75
2023/07/25 04:05:32;;;;;;;2.12;0.57;;;15.90;99.90;;;;;;4413155;32;20466;-74
2023/07/25 04:07:57;;;;;;;0.37;0.37;;;15.90;99.90;;;;;;4412381;32;20081;-75
2023/07/25 04:10:23;;;;;;;0.30;0.30;;;15.90;99.90;;;;;;4409557;32;20133;-73
2023/07/25 04:12:48;;;;;;;0.57;0.57;;;15.90;99.90;;;;;;4400798;32;20518;-73
2023/07/25 04:15:14;;;;;;;0.35;0.35;;;15.80;99.90;;;;;;4398476;32;20117;-73
2023/07/25 04:17:39;;;;;;;0.30;0.30;;;15.80;99.90;;;;;;4399656;32;20057;-73
2023/07/25 04:20:05;;;;;;;0.90;0.60;;;15.60;99.90;;;;;;4397991;32;20082;-74
2023/07/25 04:22:31;;;;;;;0.30;0.30;;;15.60;99.90;;;;;;4406035;32;20435;-74
2023/07/25 04:24:56;;;;;;;0.55;0.50;;;15.70;99.90;;;;;;4412858;32;20074;-75
2023/07/25 04:27:22;;;;;;;0.52;0.52;;;15.70;99.90;;;;;;4413432;32;20073;-74
2023/07/25 04:29:47;;;;;;;0.40;0.32;;;15.80;99.90;;;;;;4412701;32;20522;-74
2023/07/25 04:32:13;;;;;;;0.40;0.40;;;15.80;99.90;;;;;;4407162;32;20095;-73
2023/07/25 04:34:38;;;;;;;0.50;0.50;;;15.90;99.90;;;;;;4412637;32;20549;-74
2023/07/25 04:37:04;;;;;;;0.50;0.50;;;15.80;99.90;;;;;;4412355;32;20077;-75
2023/07/25 04:39:30;;;;;;;0.50;0.50;;;15.80;99.90;;;;;;4405243;32;20082;-73
2023/07/25 04:41:55;;;;;;;0.40;0.40;;;15.80;99.90;;;;;;4397705;32;20100;-73
2023/07/25 04:44:21;;;;;;;0.40;0.40;;;15.90;99.90;;;;;;4423800;32;20069;-74
2023/07/25 04:46:46;;;;;;;2.40;1.35;;;15.90;99.90;;;;;;4430873;32;20082;-74
2023/07/25 04:49:12;;;;;;;0.40;0.40;;;15.90;99.90;;;;;;4421558;32;20191;-74
2023/07/25 04:51:39;;;;;;;0.55;0.55;;;15.80;99.90;;;;;;4416161;32;20483;-73
2023/07/25 04:54:05;;;;;;;1.10;0.47;;;15.90;99.90;;;;;;4423481;32;20521;-73
2023/07/25 04:56:30;;;;;;;0.30;0.30;;;15.90;99.90;;;;;;4415344;32;20081;-72
2023/07/25 04:58:56;;;;;;;0.50;0.50;;;15.90;99.90;;;;;;4414701;32;20518;-73
2023/07/25 05:01:21;;;;;;;3.05;0.98;;;15.90;99.90;;;;;;4414468;32;20077;-73
2023/07/25 05:03:47;;;;;;;1.75;0.52;;;15.90;99.90;;;;;;4414156;32;20069;-74
2023/07/25 05:06:13;;;;;;;1.02;0.95;;;16.00;99.90;;;;;;4415555;32;20501;-74
2023/07/25 05:08:38;;;;;;;0.30;0.30;;;16.00;99.90;;;;;;4414445;32;20502;-73
2023/07/25 05:11:04;;;;;;;0.60;0.60;;;15.90;99.90;;;;;;4412962;32;20078;-73
2023/07/25 05:13:29;;;;;;;0.70;0.70;;;15.90;99.90;;;;;;4412044;32;20074;-74
2023/07/25 05:15:54;;;;;;;0.85;0.85;;;16.00;99.90;;;;;;4399595;32;20087;-73
2023/07/25 05:18:20;;;;;;;0.50;0.50;;;16.10;99.90;;;;;;4410808;32;20117;-73
2023/07/25 05:20:45;;;;;;;0.50;0.50;;;16.10;99.90;;;;;;4400120;32;20069;-73
2023/07/25 05:23:11;;;;;;;1.87;1.40;;;16.10;99.90;;;;;;4404604;32;20474;-74
2023/07/25 05:25:38;;;;;;;0.40;0.40;;;16.10;99.90;;;;;;4409737;32;20082;-73
2023/07/25 05:28:03;;;;;;;0.43;0.43;;;16.10;99.90;;;;;;4414009;32;20086;-74
2023/07/25 05:30:29;;;;;;;0.40;0.40;;;16.10;99.90;;;;;;4413691;32;20073;-73
2023/07/25 05:32:54;;;;;;;0.40;0.40;;;16.10;99.90;;;;;;4411453;32;20066;-72
2023/07/25 05:35:20;;;;;;;0.30;0.30;;;16.10;99.90;;;;;;4399829;32;20475;-73
2023/07/25 05:37:45;;;;;;;0.57;0.57;;;16.10;99.90;;;;;;4410264;32;20066;-73
2023/07/25 05:40:11;;;;;;;0.52;0.52;;;16.10;99.90;;;;;;4414947;32;20069;-73
2023/07/25 05:42:36;;;;;;;0.43;0.43;;;16.00;99.90;;;;;;4414537;32;20077;-72
2023/07/25 05:45:02;;;;;;;0.40;0.40;;;16.10;99.90;;;;;;4414582;32;20081;-73
2023/07/25 05:47:28;;;;;;;0.50;0.45;;;16.10;99.90;;;;;;4414746;32;20158;-73
2023/07/25 05:49:54;;;;;;;0.50;0.50;;;16.20;99.90;;;;;;4414201;32;20477;-72
2023/07/25 05:52:20;;;;;;;0.82;0.47;;;16.30;99.90;;;;;;4413248;32;20077;-75
2023/07/25 05:54:45;;;;;;;0.45;0.43;;;16.30;99.90;;;;;;4412660;32;20154;-72
2023/07/25 05:57:11;;;;;;;0.30;0.30;;;16.30;99.90;;;;;;4414069;32;20061;-73
2023/07/25 05:59:36;;;;;;;0.73;0.50;;;16.30;99.90;;;;;;4414081;32;20082;-74
2023/07/25 06:02:03;;;;;;;0.35;0.35;;;16.40;99.90;;;;;;4412874;32;20117;-74
2023/07/25 06:04:29;;;;;;;0.50;0.50;;;16.50;99.90;;;;;;4399719;32;20082;-73
2023/07/25 06:06:55;;;;;;;0.55;0.43;;;16.50;99.90;;;;;;4407342;32;20080;-73
2023/07/25 06:09:20;;;;;;;0.30;0.30;;;16.50;99.90;;;;;;4407785;32;20066;-73
2023/07/25 06:11:46;;;;;;;0.40;0.40;;;16.50;99.90;;;;;;4402123;32;20576;-74
2023/07/25 06:14:11;;;;;;;0.40;0.40;;;16.50;99.90;;;;;;4410014;32;20549;-73
2023/07/25 06:16:37;;;;;;;0.45;0.40;;;16.40;99.90;;;;;;4413716;32;20086;-74
2023/07/25 06:19:02;;;;;;;1.27;0.75;;;16.50;99.90;;;;;;4410378;32;20069;-75
2023/07/25 06:21:28;;;;;;;1.73;0.88;;;16.60;99.90;;;;;;4414173;32;20057;-73
2023/07/25 06:23:53;;;;;;;0.30;0.30;;;16.70;99.90;;;;;;4400731;32;20066;-75
2023/07/25 06:26:19;;;;;;;0.62;0.62;;;16.60;99.90;;;;;;4414332;32;20070;-73
2023/07/25 06:28:44;;;;;;;0.40;0.40;;;16.60;99.90;;;;;;4414042;32;20500;-74
2023/07/25 06:31:10;;;;;;;0.30;0.30;;;16.70;99.90;;;;;;4414244;32;20061;-75
2023/07/25 06:33:35;;;;;;;0.30;0.30;;;16.90;99.90;;;;;;4413940;32;20087;-74
2023/07/25 06:36:01;;;;;;;0.30;0.30;;;16.90;99.90;;;;;;4415151;32;20154;-74
2023/07/25 06:38:26;;;;;;;1.75;0.60;;;16.80;99.90;;;;;;4406934;32;20485;-73
2023/07/25 06:40:52;;;;;;;0.40;0.40;;;16.70;99.90;;;;;;4399555;32;20117;-74
2023/07/25 06:43:17;;;;;;;1.60;0.85;;;16.70;99.90;;;;;;4410428;32;20073;-74
2023/07/25 06:45:43;;;;;;;0.60;0.60;;;16.70;99.90;;;;;;4414470;32;20446;-74
2023/07/25 06:48:08;;;;;;;9.52;0.90;;;16.80;99.90;;;;;;4405309;32;20070;-73
2023/07/25 06:50:34;;;;;;;0.32;0.32;;;16.80;99.90;;;;;;4410170;32;20069;-73
2023/07/25 06:52:59;;;;;;;0.73;0.70;;;16.90;99.90;;;;;;4414314;32;20133;-74
2023/07/25 06:55:25;;;;;;;0.82;0.65;;;17.00;99.90;;;;;;4413657;32;20118;-74
2023/07/25 06:57:51;;;;;;;0.40;0.40;;;17.10;99.90;;;;;;4408242;32;20087;-73
2023/07/25 07:00:17;;;;;;;0.45;0.45;;;17.10;99.90;;;;;;4398560;32;20401;-73
2023/07/25 07:02:43;;;;;;;0.70;0.43;;;17.10;99.90;;;;;;4404151;32;20419;-73
2023/07/25 07:05:08;;;;;;;0.30;0.30;;;17.30;99.90;;;;;;4398242;32;20125;-73
2023/07/25 07:07:34;;;;;;;0.47;0.32;;;17.40;99.90;;;;;;4402577;32;20086;-72
2023/07/25 07:09:59;;;;;;;0.40;0.40;;;17.40;99.90;;;;;;4405183;32;20074;-73
2023/07/25 07:12:25;;;;;;;0.50;0.50;;;17.40;99.90;;;;;;4414180;32;20415;-75
2023/07/25 07:14:51;;;;;;;0.30;0.30;;;17.30;99.90;;;;;;4412526;32;20061;-74
2023/07/25 07:17:17;;;;;;;0.40;0.40;;;17.30;99.90;;;;;;4413547;32;20070;-75
2023/07/25 07:19:43;;;;;;;2.92;0.95;;;17.30;99.90;;;;;;4413364;32;20065;-73
2023/07/25 07:22:08;;;;;;;0.30;0.30;;;17.30;99.90;;;;;;4412930;32;20464;-74
2023/07/25 07:24:34;;;;;;;0.30;0.30;;;17.30;99.90;;;;;;4413526;32;20081;-74
2023/07/25 07:26:59;;;;;;;0.43;0.43;;;17.30;99.90;;;;;;4403401;32;20074;-73
2023/07/25 07:29:25;;;;;;;0.43;0.43;;;17.30;99.90;;;;;;4407886;32;20086;-73
2023/07/25 07:31:50;;;;;;;8.95;0.55;;;17.30;99.90;;;;;;4415396;32;20081;-74
2023/07/25 07:34:17;;;;;;;9.02;2.03;;;17.50;99.90;;;;;;4412495;32;20436;-74
2023/07/25 07:36:44;;;;;;;2.00;0.85;;;17.80;99.90;;;;;;4392377;32;20133;-73
2023/07/25 07:39:11;;;;;;;0.30;0.30;;;17.90;99.90;;;;;;4412958;32;20062;-73
2023/07/25 07:41:37;;;;;;;0.37;0.37;;;17.80;99.90;;;;;;4412693;32;20061;-74
2023/07/25 07:44:03;;;;;;;1.33;0.60;;;17.80;99.90;;;;;;4413139;32;20065;-74
2023/07/25 07:46:29;;;;;;;0.40;0.40;;;17.50;99.90;;;;;;4410457;32;20509;-73
2023/07/25 07:48:56;;;;;;;0.60;0.60;;;17.60;99.90;;;;;;4409044;32;20131;-73
2023/07/25 07:51:23;;;;;;;0.50;0.50;;;17.70;99.90;;;;;;4408552;32;20618;-73
2023/07/25 07:53:49;;;;;;;0.30;0.30;;;17.80;99.90;;;;;;4413076;32;20204;-73
2023/07/25 07:56:14;;;;;;;0.40;0.40;;;18.20;99.90;;;;;;4413411;32;20073;-72
2023/07/25 07:58:40;;;;;;;0.32;0.32;;;18.40;99.90;;;;;;4412751;32;20474;-73
2023/07/25 08:01:13;;;;;;;3.53;1.05;;;18.60;99.90;;;;;;4409224;32;20407;-73
2023/07/25 08:03:39;;;;;;;2.08;0.73;;;18.60;99.90;;;;;;4403176;32;20494;-72
2023/07/25 08:06:04;;;;;;;0.47;0.47;;;18.70;99.90;;;;;;4409898;32;20149;-74
2023/07/25 08:08:30;;;;;;;0.20;0.20;;;18.90;99.90;;;;;;4413058;32;20081;-74
2023/07/25 08:10:55;;;;;;;1.40;0.65;;;19.20;99.90;;;;;;4412943;32;20077;-73
2023/07/25 08:13:21;;;;;;;0.40;0.40;;;19.40;99.90;;;;;;4412978;32;20065;-74
2023/07/25 08:15:47;;;;;;;0.50;0.50;;;19.20;99.90;;;;;;4412770;32;20083;-73
2023/07/25 08:18:13;;;;;;;0.47;0.47;;;19.10;99.90;;;;;;4415044;32;20089;-74
2023/07/25 08:20:38;;;;;;;0.20;0.20;;;18.90;99.90;;;;;;4417906;32;20087;-73
2023/07/25 08:23:04;;;;;;;6.25;1.67;;;18.50;99.90;;;;;;4416810;32;20117;-73
2023/07/25 08:25:29;;;;;;;0.37;0.37;;;18.40;99.90;;;;;;4402824;32;20135;-73
2023/07/25 08:27:55;;;;;;;0.32;0.32;;;18.50;99.90;;;;;;4407406;32;20066;-72
2023/07/25 08:30:20;;;;;;;0.30;0.30;;;18.50;99.90;;;;;;4416492;32;20074;-73
2023/07/25 08:32:46;;;;;;;0.30;0.30;;;18.40;99.90;;;;;;4416314;32;20572;-71
2023/07/25 08:35:11;;;;;;;0.47;0.47;;;18.70;99.90;;;;;;4417144;32;20115;-73
2023/07/25 08:37:37;;;;;;;0.40;0.40;;;18.80;99.90;;;;;;4417360;32;20125;-72
2023/07/25 08:40:04;;;;;;;0.28;0.28;;;18.90;99.90;;;;;;4417650;32;20533;-73
2023/07/25 08:42:32;;;;;;;0.37;0.37;;;18.90;99.90;;;;;;4417772;32;20078;-73
2023/07/25 08:44:59;;;;;;;0.32;0.32;;;18.90;99.90;;;;;;4417776;32;20077;-73
2023/07/25 08:47:28;;;;;;;3.30;0.95;;;18.80;99.90;;;;;;4417242;32;20066;-73
2023/07/25 08:49:56;;;;;;;0.30;0.30;;;18.70;99.90;;;;;;4417833;32;20065;-73
2023/07/25 08:52:28;;;;;;;0.30;0.30;;;18.80;99.90;;;;;;4417110;32;20655;-73
2023/07/25 08:54:54;;;;;;;0.50;0.50;;;18.90;99.90;;;;;;4416458;32;20206;-72
2023/07/25 08:57:21;;;;;;;0.40;0.40;;;19.00;99.90;;;;;;4408637;32;20066;-72
2023/07/25 08:59:48;;;;;;;0.30;0.30;;;19.10;99.90;;;;;;4417670;32;20076;-73
2023/07/25 09:02:16;;;;;;;0.50;0.50;;;19.30;99.90;;;;;;4417546;32;20066;-72
2023/07/25 09:04:44;;;;;;;0.40;0.40;;;19.40;99.90;;;;;;4417665;32;20062;-72
2023/07/25 09:07:10;;;;;;;0.20;0.20;;;19.70;99.90;;;;;;4417017;32;20062;-72
2023/07/25 09:09:35;;;;;;;0.30;0.30;;;19.80;99.90;;;;;;4402904;32;20148;-73
2023/07/25 09:12:01;;;;;;;0.30;0.30;;;19.90;99.90;;;;;;4407973;32;20081;-72
2023/07/25 09:14:27;;;;;;;0.52;0.52;;;19.90;99.90;;;;;;4413314;32;20066;-74
2023/07/25 09:16:53;;;;;;;0.43;0.43;;;19.90;99.90;;;;;;4403339;32;20062;-73
2023/07/25 09:19:19;;;;;;;0.25;0.25;;;19.90;99.90;;;;;;4414017;32;20196;-73
2023/07/25 09:21:50;;;;;;;0.47;0.47;;;19.80;99.90;;;;;;4403567;32;20070;-73
2023/07/25 09:24:15;;;;;;;;;;;19.80;99.90;;;;;;4413539;32;20461;-72
2023/07/25 09:26:50;;;;;;;1.35;0.77;;;19.60;99.90;;;;;;4416519;32;19955;-73
2023/07/25 09:29:16;;;;;;;0.37;0.37;;;19.50;99.90;;;;;;4409446;32;20136;-74
2023/07/25 09:31:44;;;;;;;13.35;0.55;;;19.30;99.90;;;;;;4412095;32;20054;-73
2023/07/25 09:34:15;;;;;;;0.28;0.28;;;19.30;99.90;;;;;;4414790;32;20089;-74
2023/07/25 09:36:44;;;;;;;0.20;0.20;;;19.20;99.90;;;;;;4404490;32;20062;-75
2023/07/25 09:39:09;;;;;;;0.30;0.30;;;19.20;99.90;;;;;;4413138;32;20533;-72
2023/07/25 09:41:35;;;;;;;0.28;0.28;;;19.10;99.90;;;;;;4413958;32;20129;-72
2023/07/25 09:44:02;;;;;;;0.25;0.25;;;19.20;99.90;;;;;;4414283;32;20085;-73
2023/07/25 09:46:28;;;;;;;0.20;0.20;;;19.10;99.90;;;;;;4416370;32;20057;-74
2023/07/25 09:48:54;;;;;;;0.30;0.30;;;19.10;99.90;;;;;;4411716;32;20086;-73
2023/07/25 09:51:19;;;;;;;0.20;0.20;;;19.20;99.90;;;;;;4414330;32;20081;-73
2023/07/25 09:53:51;;;;;;;0.20;0.20;;;19.30;99.90;;;;;;4412459;32;20127;-72
2023/07/25 09:56:20;;;;;;;0.20;0.20;;;19.50;99.90;;;;;;4414702;32;20074;-73
2023/07/25 09:58:45;;;;;;;0.30;0.30;;;19.70;99.90;;;;;;4414613;32;20066;-73
2023/07/25 10:01:12;;;;;;;0.25;0.25;;;19.70;99.90;;;;;;4414123;32;20069;-74
2023/07/25 10:03:38;;;;;;;0.20;0.20;;;19.70;99.90;;;;;;4408748;32;20069;-75
2023/07/25 10:06:04;;;;;;;0.20;0.20;;;19.60;99.90;;;;;;4402133;32;20069;-72
2023/07/25 10:08:30;;;;;;;0.30;0.30;;;19.60;99.90;;;;;;4403907;32;20086;-72
2023/07/25 10:10:56;;;;;;;0.20;0.20;;;19.80;99.90;;;;;;4413955;32;20070;-74
2023/07/25 10:13:23;;;;;;;0.32;0.32;;;20.00;99.90;;;;;;4414100;32;20433;-72
2023/07/25 10:15:50;;;;;;;0.20;0.20;;;20.10;99.90;;;;;;4412182;32;20070;-72
2023/07/25 10:18:20;;;;;;;0.20;0.20;;;20.00;99.90;;;;;;4414515;32;20073;-72
2023/07/25 10:20:46;;;;;;;1.00;0.90;;;20.10;99.90;;;;;;4414702;32;20073;-72
2023/07/25 10:23:13;;;;;;;0.20;0.20;;;20.10;99.90;;;;;;4401145;32;20090;-73
2023/07/25 10:25:39;;;;;;;2.30;0.60;;;20.20;99.90;;;;;;4399816;32;20086;-72
2023/07/25 10:28:04;;;;;;;0.30;0.30;;;20.30;99.90;;;;;;4405542;32;20069;-73
2023/07/25 10:30:39;;;;;;;0.70;0.52;;;20.30;99.90;;;;;;4413963;32;20058;-74
2023/07/25 10:33:07;;;;;;;0.47;0.40;;;20.50;99.90;;;;;;4413481;32;20061;-72
2023/07/25 10:35:42;;;;;;;0.32;0.32;;;20.70;99.90;;;;;;4413279;32;20398;-71
2023/07/25 10:38:09;;;;;;;0.20;0.20;;;20.80;99.90;;;;;;4413041;32;20411;-72
2023/07/25 10:40:56;;;;;;;0.45;0.40;;;20.70;99.90;;;;;;4404140;32;20117;-72
2023/07/25 10:43:26;;;;;;;0.40;0.40;;;20.90;99.90;;;;;;4394377;32;20062;-72
2023/07/25 10:45:54;;;;;;;0.20;0.20;;;21.00;99.90;;;;;;4406912;32;20082;-72
2023/07/25 10:48:27;;;;;;;0.20;0.20;;;21.20;99.90;;;;;;4403595;32;20146;-73
2023/07/25 10:50:54;;;;;;;0.30;0.30;;;21.20;99.90;;;;;;4413397;32;20505;-74
2023/07/25 10:53:21;;;;;;;0.22;0.22;;;21.10;99.90;;;;;;4412739;32;20065;-72
2023/07/25 10:56:07;;;;;;;2.05;1.37;;;21.00;99.90;;;;;;4412820;32;20086;-72
2023/07/25 10:58:34;;;;;;;0.47;0.47;;;20.90;99.90;;;;;;4400875;32;20128;-72
2023/07/25 11:01:01;;;;;;;0.25;0.25;;;21.00;99.90;;;;;;4405683;32;20090;-73
2023/07/25 11:03:29;;;;;;;0.20;0.20;;;21.50;99.90;;;;;;4413951;32;20506;-73
2023/07/25 11:06:13;;;;;;;1.08;0.57;;;21.70;99.90;;;;;;4402817;32;20581;-72
2023/07/25 11:08:41;;;;;;;0.20;0.20;;;21.70;99.90;;;;;;4399599;32;20081;-72
2023/07/25 11:11:09;;;;;;;2.12;1.20;;;21.90;99.90;;;;;;4413382;32;20077;-74
2023/07/25 11:13:37;;;;;;;0.30;0.30;;;21.90;99.90;;;;;;4411817;32;20066;-74
2023/07/25 11:16:03;;;;;;;0.40;0.40;;;22.00;99.90;;;;;;4408530;32;20073;-73
2023/07/25 11:18:30;;;;;;;0.10;0.10;;;22.10;99.90;;;;;;4411878;32;20131;-72
2023/07/25 11:21:02;;;;;;;0.45;0.45;;;22.40;99.90;;;;;;4413357;32;20089;-73
2023/07/25 11:23:28;;;;;;;0.47;0.45;;;22.90;99.90;;;;;;4407042;32;20078;-73
2023/07/25 11:25:54;;;;;;;0.80;0.30;;;23.30;99.90;;;;;;4413519;32;20066;-73
2023/07/25 11:28:21;;;;;;;16.65;0.40;;;23.80;99.90;;;;;;4413129;32;20074;-73
2023/07/25 11:30:47;;;;;;;0.20;0.20;;;24.20;99.90;;;;;;4399422;32;20074;-74
2023/07/25 11:33:13;;;;;;;0.10;0.10;;;24.10;99.90;;;;;;4412633;32;20090;-72
2023/07/25 11:35:38;;;;;;;0.20;0.20;;;23.80;99.90;;;;;;4404944;32;20440;-72
2023/07/25 11:38:04;;;;;;;0.17;0.17;;;24.00;99.90;;;;;;4404855;32;20077;-73
2023/07/25 11:40:31;;;;;;;0.35;0.35;;;23.70;99.30;;;;;;4394195;32;20079;-73
2023/07/25 11:42:57;;;;;;;0.22;0.22;;;23.20;99.90;;;;;;4400423;32;20137;-72
2023/07/25 11:45:23;;;;;;;0.10;0.10;;;22.90;99.90;;;;;;4413616;32;20157;-72
2023/07/25 11:47:50;;;;;;;0.30;0.30;;;23.00;99.90;;;;;;4407903;32;113060;-74
2023/07/25 11:50:18;;;;;;;3.25;0.88;;;23.50;99.90;;;;;;4404578;32;20077;-72
2023/07/25 11:52:46;;;;;;;0.17;0.17;;;23.90;99.90;;;;;;4401041;32;20098;-72
2023/07/25 11:55:12;;;;;;;0.20;0.20;;;24.00;99.70;;;;;;4411399;32;20093;-72
2023/07/25 11:57:42;;;;;;;0.00;0.00;;;24.50;99.90;;;;;;4412205;32;20177;-72
2023/07/25 12:00:11;;;;;;;0.00;0.00;;;24.90;97.10;;;;;;4412521;32;20069;-73
2023/07/25 12:02:39;;;;;;;0.17;0.17;;;25.20;98.20;;;;;;4411892;32;20151;-72
2023/07/25 12:05:06;;;;;;;0.10;0.10;;;25.40;97.90;;;;;;4412812;32;20129;-73
2023/07/25 12:07:52;;;;;;;0.03;0.03;;;25.70;97.40;;;;;;4413337;32;20069;-73
2023/07/25 12:10:26;;;;;;;0.40;0.28;;;26.00;95.80;;;;;;4400648;32;20127;-73
2023/07/25 12:12:56;;;;;;;0.28;0.28;;;26.10;95.50;;;;;;4411607;32;20086;-73
2023/07/25 12:15:23;;;;;;;0.10;0.10;;;26.40;93.90;;;;;;4412181;32;20082;-73
2023/07/25 12:17:49;;;;;;;0.10;0.10;;;27.00;93.80;;;;;;4413973;32;20125;-74
2023/07/25 12:20:17;;;;;;;0.30;0.20;;;27.00;91.50;;;;;;4411087;32;20132;-74
2023/07/25 12:22:44;;;;;;;0.10;0.10;;;26.90;92.40;;;;;;4405019;32;20085;-72
2023/07/25 12:25:10;;;;;;;0.30;0.30;;;27.10;93.90;;;;;;4412977;32;20077;-73
2023/07/25 12:27:44;;;;;;;0.15;0.15;;;27.70;91.70;;;;;;4411107;32;20462;-73
2023/07/25 12:30:10;;;;;;;0.40;0.40;;;27.90;92.30;;;;;;4411180;32;20129;-73
2023/07/25 12:32:35;;;;;;;0.20;0.20;;;27.90;90.30;;;;;;4423212;32;20545;-72
2023/07/25 12:35:01;;;;;;;0.13;0.13;;;26.90;90.80;;;;;;4412214;32;20124;-74
2023/07/25 12:37:28;;;;;;;0.17;0.17;;;26.20;92.00;;;;;;4402966;32;20066;-73
2023/07/25 12:39:53;;;;;;;0.20;0.20;;;25.40;94.00;;;;;;4406752;32;20069;-73
2023/07/25 12:42:19;;;;;;;0.10;0.10;;;25.20;93.80;;;;;;4413020;32;20536;-73
2023/07/25 12:44:44;;;;;;;0.00;0.00;;;25.60;93.10;;;;;;4409989;32;20194;-72